Time;durP1;ratioP1;P1;durP2;ratioP2;P2;SDS_P1;SDS_P2;PMS_P1;PMS_P2;Temp;Humidity;BMP_temperature;BMP_pressure;BME280_temperature;BME280_humidity;BME280_pressure;Samples;Min_cycle;Max_cycle;Signal;HPM_P1;HPM_P2
2022/05/05 00:02:01;;;;;;;0.10;0.10;;;10.70;99.90;;;;;;5011913;28;20037;-67
2022/05/05 00:04:27;;;;;;;0.22;0.22;;;10.70;99.90;;;;;;5024412;28;20138;-67
2022/05/05 00:06:53;;;;;;;0.10;0.10;;;10.60;99.90;;;;;;5024332;28;20033;-67
2022/05/05 00:09:19;;;;;;;1.65;0.80;;;10.60;99.90;;;;;;5028203;28;20054;-67
2022/05/05 00:14:31;;;;;;;0.03;0.03;;;10.60;99.90;;;;;;5022388;28;20050;-67
2022/05/05 00:16:59;;;;;;;0.10;0.10;;;10.60;99.90;;;;;;5014538;28;20089;-67
2022/05/05 00:19:25;;;;;;;0.22;0.22;;;10.60;99.90;;;;;;5025101;28;20048;-67
2022/05/05 00:21:51;;;;;;;0.30;0.30;;;10.60;99.90;;;;;;5025912;28;20124;-67
2022/05/05 00:24:17;;;;;;;0.40;0.40;;;10.50;99.90;;;;;;5019912;28;20204;-67
2022/05/05 00:26:43;;;;;;;0.57;0.40;;;10.50;99.90;;;;;;5016896;28;21392;-67
2022/05/05 00:29:09;;;;;;;0.40;0.38;;;10.50;99.90;;;;;;5026102;28;20053;-67
2022/05/05 00:31:35;;;;;;;0.85;0.85;;;10.50;99.90;;;;;;5014689;28;20033;-67
2022/05/05 00:34:01;;;;;;;0.40;0.40;;;10.50;99.90;;;;;;5016868;28;20107;-67
2022/05/05 00:36:26;;;;;;;0.65;0.65;;;10.40;99.90;;;;;;5024946;28;20135;-67
2022/05/05 00:38:52;;;;;;;0.57;0.30;;;10.40;99.90;;;;;;5012724;28;20107;-67
2022/05/05 00:41:17;;;;;;;0.08;0.08;;;10.40;99.90;;;;;;5021940;28;20049;-67
2022/05/05 00:43:43;;;;;;;0.73;0.73;;;10.30;99.90;;;;;;5026663;28;20053;-67
2022/05/05 00:46:08;;;;;;;0.17;0.17;;;10.30;99.90;;;;;;5015397;28;20041;-67
2022/05/05 00:48:34;;;;;;;0.05;0.05;;;10.30;99.90;;;;;;5023433;28;20049;-67
2022/05/05 00:51:00;;;;;;;3.45;2.47;;;10.30;99.90;;;;;;5014760;28;20095;-68
2022/05/05 00:53:25;;;;;;;5.93;1.73;;;10.20;99.90;;;;;;5023888;28;20156;-67
2022/05/05 00:55:56;;;;;;;0.22;0.22;;;10.10;99.90;;;;;;5026919;28;20675;-67
2022/05/05 00:58:26;;;;;;;0.10;0.10;;;10.10;99.90;;;;;;5008535;28;20030;-67
2022/05/05 01:00:53;;;;;;;0.75;0.75;;;10.10;99.90;;;;;;5016529;28;20045;-67
2022/05/05 01:03:19;;;;;;;0.20;0.20;;;10.00;99.90;;;;;;5026450;28;20037;-67
2022/05/05 01:05:45;;;;;;;0.13;0.13;;;9.90;99.90;;;;;;5016154;28;20119;-67
2022/05/05 01:08:10;;;;;;;0.65;0.65;;;9.90;99.90;;;;;;5017078;28;20476;-67
2022/05/05 01:10:36;;;;;;;0.10;0.10;;;9.80;99.90;;;;;;5025522;28;20034;-67
2022/05/05 01:13:02;;;;;;;0.28;0.28;;;9.80;99.90;;;;;;5025969;28;20050;-67
2022/05/05 01:15:32;;;;;;;0.65;0.65;;;9.80;99.90;;;;;;5017160;28;20040;-67
2022/05/05 01:17:57;;;;;;;0.10;0.10;;;9.70;99.90;;;;;;5022276;28;21396;-67
2022/05/05 01:20:23;;;;;;;0.43;0.43;;;9.70;99.90;;;;;;5021722;28;20140;-67
2022/05/05 01:22:51;;;;;;;1.65;1.55;;;9.60;99.90;;;;;;5021447;28;20056;-67
2022/05/05 01:28:11;;;;;;;0.10;0.10;;;9.60;99.90;;;;;;5013981;28;20136;-67
2022/05/05 01:30:38;;;;;;;0.95;0.90;;;9.60;99.90;;;;;;5011478;28;20048;-67
2022/05/05 01:33:32;;;;;;;0.00;0.00;;;9.50;99.90;;;;;;5008453;28;20448;-67
2022/05/05 01:35:59;;;;;;;0.10;0.10;;;9.40;99.90;;;;;;5016773;28;20057;-68
2022/05/05 01:38:36;;;;;;;0.32;0.32;;;9.30;99.90;;;;;;5016393;28;20045;-67
2022/05/05 01:41:09;;;;;;;1.10;1.10;;;9.30;99.90;;;;;;5016646;28;20052;-67
2022/05/05 01:43:36;;;;;;;;;;;9.20;99.90;;;;;;5026361;28;20073;-67
2022/05/05 01:46:02;;;;;;;0.30;0.30;;;9.20;99.90;;;;;;5026252;28;19921;-68
2022/05/05 01:48:28;;;;;;;0.30;0.30;;;9.20;99.90;;;;;;5012139;28;20414;-68
2022/05/05 01:50:54;;;;;;;0.10;0.10;;;9.20;99.90;;;;;;5028573;28;20124;-67
2022/05/05 01:53:19;;;;;;;0.40;0.40;;;9.20;99.90;;;;;;5026208;28;20704;-68
2022/05/05 01:55:45;;;;;;;0.30;0.30;;;9.20;99.90;;;;;;5026460;28;20053;-68
2022/05/05 01:58:11;;;;;;;0.60;0.60;;;9.20;99.90;;;;;;5020180;28;20052;-68
2022/05/05 02:00:37;;;;;;;0.10;0.10;;;9.30;99.90;;;;;;5021299;28;20048;-67
2022/05/05 02:03:07;;;;;;;0.10;0.10;;;9.30;99.90;;;;;;5009687;28;20042;-68
2022/05/05 02:05:32;;;;;;;0.10;0.10;;;9.30;99.90;;;;;;5011164;28;20052;-68
2022/05/05 02:07:58;;;;;;;32.25;1.17;;;9.30;99.90;;;;;;5023135;28;20046;-68
2022/05/05 02:10:24;;;;;;;0.00;0.00;;;9.30;99.90;;;;;;5022229;28;20038;-68
2022/05/05 02:12:53;;;;;;;0.20;0.20;;;9.30;99.90;;;;;;5029832;28;20603;-68
2022/05/05 02:15:18;;;;;;;1.17;1.13;;;9.30;99.90;;;;;;5020644;28;20103;-68
2022/05/05 02:17:48;;;;;;;6.30;1.45;;;9.30;99.90;;;;;;5023308;28;20046;-68
2022/05/05 02:20:14;;;;;;;0.20;0.20;;;9.20;99.90;;;;;;5010596;28;20129;-68
2022/05/05 02:22:40;;;;;;;0.10;0.10;;;9.30;99.90;;;;;;5020476;28;20129;-68
2022/05/05 02:25:06;;;;;;;0.35;0.35;;;9.30;99.90;;;;;;5028597;28;20538;-68
2022/05/05 02:27:49;;;;;;;0.40;0.40;;;9.20;99.90;;;;;;5028272;28;20071;-68
2022/05/05 02:30:15;;;;;;;0.10;0.10;;;9.20;99.90;;;;;;5017754;28;20053;-68
2022/05/05 02:32:42;;;;;;;0.17;0.17;;;9.10;99.90;;;;;;5014441;28;20088;-67
2022/05/05 02:35:07;;;;;;;0.20;0.20;;;9.10;99.90;;;;;;5026568;28;20068;-68
2022/05/05 02:40:17;;;;;;;0.00;0.00;;;9.10;99.90;;;;;;5020352;28;20460;-67
2022/05/05 02:42:43;;;;;;;0.20;0.20;;;9.00;99.90;;;;;;5013895;28;20041;-67
2022/05/05 02:45:09;;;;;;;0.50;0.38;;;9.00;99.90;;;;;;5014348;28;20053;-67
2022/05/05 02:47:34;;;;;;;0.30;0.30;;;8.90;99.90;;;;;;5028477;28;20041;-68
2022/05/05 02:50:00;;;;;;;0.10;0.10;;;8.90;99.90;;;;;;5025985;28;20457;-67
2022/05/05 02:52:25;;;;;;;0.32;0.32;;;8.90;99.90;;;;;;5015468;28;20061;-67
2022/05/05 02:54:51;;;;;;;1.25;0.85;;;8.90;99.90;;;;;;5021608;28;20092;-67
2022/05/05 02:57:23;;;;;;;2.72;1.55;;;8.90;99.90;;;;;;5019991;28;20041;-67
2022/05/05 02:59:49;;;;;;;0.43;0.43;;;8.80;99.90;;;;;;5019815;28;20064;-67
2022/05/05 03:02:15;;;;;;;0.55;0.55;;;8.80;99.90;;;;;;5014046;28;20037;-66
2022/05/05 03:04:41;;;;;;;0.17;0.17;;;8.90;99.90;;;;;;5009335;28;20046;-67
2022/05/05 03:07:07;;;;;;;0.10;0.10;;;8.90;99.90;;;;;;5024190;28;20384;-67
2022/05/05 03:09:33;;;;;;;0.20;0.20;;;8.90;99.90;;;;;;5026990;28;20041;-67
2022/05/05 03:11:58;;;;;;;4.30;0.63;;;9.00;99.90;;;;;;5019853;28;20057;-67
2022/05/05 03:14:24;;;;;;;1.77;1.08;;;8.80;99.90;;;;;;5016612;28;20046;-67
2022/05/05 03:16:50;;;;;;;0.30;0.30;;;8.80;99.90;;;;;;5014147;28;20056;-67
2022/05/05 03:19:15;;;;;;;0.10;0.10;;;8.80;99.90;;;;;;5018904;28;20041;-67
2022/05/05 03:21:41;;;;;;;0.90;0.63;;;8.80;99.90;;;;;;5029396;28;20041;-67
2022/05/05 03:24:07;;;;;;;0.60;0.60;;;8.70;99.90;;;;;;5028157;28;20056;-67
2022/05/05 03:26:32;;;;;;;9.52;1.33;;;8.80;99.90;;;;;;5020606;28;20049;-67
2022/05/05 03:28:58;;;;;;;0.63;0.63;;;8.90;99.90;;;;;;5018457;28;20155;-67
2022/05/05 03:31:24;;;;;;;0.05;0.05;;;8.80;99.90;;;;;;5011196;28;20054;-67
2022/05/05 03:33:50;;;;;;;0.10;0.10;;;8.70;99.90;;;;;;5027629;28;20175;-67
2022/05/05 03:36:15;;;;;;;0.10;0.10;;;8.70;99.90;;;;;;5017243;28;20542;-67
2022/05/05 03:38:41;;;;;;;0.55;0.50;;;8.70;99.90;;;;;;5012444;28;20037;-67
2022/05/05 03:41:07;;;;;;;5.38;1.40;;;8.70;99.90;;;;;;5013915;28;20072;-67
2022/05/05 03:43:33;;;;;;;0.13;0.13;;;8.70;99.90;;;;;;5027085;28;20152;-67
2022/05/05 03:45:59;;;;;;;0.10;0.10;;;8.80;99.90;;;;;;5014187;28;20440;-67
2022/05/05 03:48:25;;;;;;;0.80;0.80;;;8.80;99.90;;;;;;5025561;28;20041;-67
2022/05/05 03:50:51;;;;;;;0.70;0.70;;;8.90;99.90;;;;;;5027996;28;20049;-68
2022/05/05 03:53:18;;;;;;;0.55;0.55;;;8.80;99.90;;;;;;5020380;28;20106;-67
2022/05/05 03:55:43;;;;;;;0.10;0.10;;;8.70;99.90;;;;;;5023605;28;20049;-67
2022/05/05 03:58:10;;;;;;;0.10;0.10;;;8.80;99.90;;;;;;5027802;28;20041;-67
2022/05/05 04:00:35;;;;;;;0.30;0.30;;;8.80;99.90;;;;;;5017048;28;20180;-67
2022/05/05 04:05:45;;;;;;;0.10;0.10;;;8.70;99.90;;;;;;5027033;28;20639;-67
2022/05/05 04:08:11;;;;;;;0.20;0.20;;;8.70;99.90;;;;;;5016785;28;20071;-67
2022/05/05 04:10:36;;;;;;;0.40;0.40;;;8.70;99.90;;;;;;5024583;28;20548;-67
2022/05/05 04:13:02;;;;;;;0.50;0.50;;;8.80;99.90;;;;;;5028349;28;20125;-67
2022/05/05 04:15:27;;;;;;;0.10;0.10;;;8.70;99.90;;;;;;5011728;28;20062;-67
2022/05/05 04:17:53;;;;;;;0.35;0.35;;;8.70;99.90;;;;;;5019273;28;20496;-67
2022/05/05 04:20:18;;;;;;;0.10;0.10;;;8.70;99.90;;;;;;5021025;28;20095;-67
2022/05/05 04:22:44;;;;;;;0.10;0.10;;;8.70;99.90;;;;;;5020198;28;20129;-67
2022/05/05 04:25:12;;;;;;;0.65;0.65;;;8.70;99.90;;;;;;5024773;28;20473;-67
2022/05/05 04:27:40;;;;;;;0.20;0.20;;;8.70;99.90;;;;;;5027294;28;20390;-67
2022/05/05 04:30:08;;;;;;;0.10;0.10;;;8.70;99.90;;;;;;5007249;28;20115;-67
2022/05/05 04:32:34;;;;;;;0.15;0.15;;;8.70;99.90;;;;;;5024084;28;20057;-68
2022/05/05 04:35:00;;;;;;;0.10;0.10;;;8.80;99.90;;;;;;5027513;28;20091;-67
2022/05/05 04:37:25;;;;;;;0.47;0.47;;;8.70;99.90;;;;;;5019563;28;20117;-67
2022/05/05 04:39:51;;;;;;;0.95;0.95;;;8.70;99.90;;;;;;5014907;28;20118;-68
2022/05/05 04:42:17;;;;;;;0.10;0.10;;;8.80;99.90;;;;;;5022749;28;20507;-67
2022/05/05 04:44:42;;;;;;;0.10;0.10;;;8.80;99.90;;;;;;5013924;28;20042;-67
2022/05/05 04:47:08;;;;;;;0.20;0.20;;;8.80;99.90;;;;;;5025131;28;20045;-67
2022/05/05 04:49:34;;;;;;;0.10;0.10;;;8.90;99.90;;;;;;5022960;28;20116;-67
2022/05/05 04:51:59;;;;;;;1.20;1.02;;;9.00;99.90;;;;;;5022929;28;20045;-67
2022/05/05 04:54:25;;;;;;;0.85;0.55;;;9.00;99.90;;;;;;5018530;28;20452;-67
2022/05/05 04:56:50;;;;;;;0.10;0.10;;;9.10;99.90;;;;;;5021249;28;20158;-67
2022/05/05 04:59:16;;;;;;;0.98;0.98;;;9.10;99.90;;;;;;5025931;28;20107;-67
2022/05/05 05:01:42;;;;;;;0.55;0.55;;;9.10;99.90;;;;;;5023028;28;20038;-67
2022/05/05 05:04:07;;;;;;;0.10;0.10;;;9.20;99.90;;;;;;5012285;28;20050;-67
2022/05/05 05:06:34;;;;;;;0.10;0.10;;;9.30;99.90;;;;;;5022475;28;20136;-67
2022/05/05 05:09:00;;;;;;;0.32;0.32;;;9.30;99.90;;;;;;5021286;28;20084;-67
2022/05/05 05:11:25;;;;;;;0.20;0.20;;;9.40;99.90;;;;;;5015286;28;20037;-67
2022/05/05 05:13:51;;;;;;;0.10;0.10;;;9.40;99.90;;;;;;5027243;28;20405;-67
2022/05/05 05:16:16;;;;;;;0.10;0.10;;;9.50;99.90;;;;;;5025353;28;20037;-67
2022/05/05 05:18:42;;;;;;;0.22;0.22;;;9.60;99.90;;;;;;5015072;28;20045;-67
2022/05/05 05:21:08;;;;;;;0.40;0.40;;;9.60;99.90;;;;;;5016369;28;20056;-67
2022/05/05 05:23:33;;;;;;;0.52;0.35;;;9.70;99.90;;;;;;5027692;28;20049;-67
2022/05/05 05:25:59;;;;;;;0.10;0.10;;;9.70;99.90;;;;;;5015348;28;20489;-67
2022/05/05 05:28:25;;;;;;;0.17;0.17;;;9.70;99.90;;;;;;5027917;28;20061;-67
2022/05/05 05:30:51;;;;;;;0.15;0.15;;;9.70;99.90;;;;;;5028537;28;20481;-67
2022/05/05 05:33:17;;;;;;;0.28;0.28;;;9.90;99.90;;;;;;5017821;28;20125;-67
2022/05/05 05:35:44;;;;;;;0.10;0.10;;;9.90;99.90;;;;;;5024332;28;20132;-67
2022/05/05 05:38:10;;;;;;;0.10;0.10;;;9.90;99.90;;;;;;5029652;28;20125;-67
2022/05/05 05:40:36;;;;;;;0.00;0.00;;;10.00;99.90;;;;;;5027323;28;20068;-67
2022/05/05 05:43:02;;;;;;;0.10;0.10;;;10.10;99.90;;;;;;5019702;28;20121;-67
2022/05/05 05:45:28;;;;;;;0.35;0.35;;;10.10;99.90;;;;;;5030242;28;20064;-67
2022/05/05 05:47:53;;;;;;;0.20;0.20;;;10.10;99.90;;;;;;5028493;28;20045;-67
2022/05/05 05:50:19;;;;;;;0.55;0.55;;;10.20;99.90;;;;;;5026754;28;20030;-67
2022/05/05 05:52:45;;;;;;;0.32;0.32;;;10.30;99.90;;;;;;5017741;28;20049;-67
2022/05/05 05:55:11;;;;;;;0.10;0.10;;;10.30;99.90;;;;;;5026840;28;20409;-67
2022/05/05 05:57:36;;;;;;;0.10;0.10;;;10.30;99.90;;;;;;5025726;28;20091;-66
2022/05/05 06:00:03;;;;;;;0.20;0.20;;;10.30;99.90;;;;;;5015463;28;20048;-67
2022/05/05 06:05:13;;;;;;;0.20;0.20;;;10.40;99.90;;;;;;5018135;28;20049;-67
2022/05/05 06:07:38;;;;;;;0.10;0.10;;;10.40;99.90;;;;;;5016531;28;20057;-67
2022/05/05 06:10:04;;;;;;;1.75;1.65;;;10.50;99.90;;;;;;5024062;28;20041;-67
2022/05/05 06:12:30;;;;;;;0.00;0.00;;;10.50;99.90;;;;;;5030509;28;20095;-67
2022/05/05 06:14:55;;;;;;;0.10;0.10;;;10.60;99.90;;;;;;5030782;28;20319;-66
2022/05/05 06:17:21;;;;;;;0.10;0.10;;;10.60;99.90;;;;;;5011630;28;20046;-67
2022/05/05 06:19:46;;;;;;;11.70;1.80;;;10.60;99.90;;;;;;5012865;28;20054;-67
2022/05/05 06:22:12;;;;;;;0.35;0.35;;;10.70;99.90;;;;;;5028187;28;20044;-66
2022/05/05 06:24:37;;;;;;;0.10;0.10;;;10.70;99.90;;;;;;5022740;28;20046;-67
2022/05/05 06:27:03;;;;;;;0.10;0.10;;;10.70;99.90;;;;;;5017034;28;20478;-67
2022/05/05 06:29:30;;;;;;;0.10;0.10;;;10.70;99.90;;;;;;5024915;28;20049;-67
2022/05/05 06:31:56;;;;;;;0.10;0.10;;;10.80;99.90;;;;;;5024491;28;20045;-67
2022/05/05 06:34:21;;;;;;;0.30;0.30;;;10.80;99.90;;;;;;5011955;28;20096;-67
2022/05/05 06:36:47;;;;;;;0.00;0.00;;;10.90;99.90;;;;;;5026266;28;20081;-67
2022/05/05 06:39:12;;;;;;;0.10;0.10;;;10.90;99.90;;;;;;5020218;28;20072;-67
2022/05/05 06:41:38;;;;;;;0.60;0.60;;;11.00;99.90;;;;;;5029145;28;20499;-66
2022/05/05 06:44:03;;;;;;;0.00;0.00;;;11.10;99.90;;;;;;5015435;28;20046;-67
2022/05/05 06:46:30;;;;;;;0.17;0.17;;;11.10;99.90;;;;;;5019513;28;20451;-66
2022/05/05 06:48:55;;;;;;;0.10;0.10;;;11.20;99.90;;;;;;5026040;28;20050;-67
2022/05/05 06:51:21;;;;;;;0.57;0.57;;;11.20;99.90;;;;;;5015140;28;20452;-66
2022/05/05 06:53:46;;;;;;;0.10;0.10;;;11.30;99.90;;;;;;5029004;28;20493;-66
2022/05/05 06:56:12;;;;;;;0.10;0.10;;;11.30;99.90;;;;;;5010170;28;20046;-67
2022/05/05 06:58:37;;;;;;;0.50;0.50;;;11.40;99.90;;;;;;5009306;28;20107;-66
2022/05/05 07:03:47;;;;;;;0.10;0.10;;;11.50;99.90;;;;;;5021557;28;20058;-66
2022/05/05 07:06:12;;;;;;;0.10;0.10;;;11.50;99.90;;;;;;5009140;28;20057;-66
2022/05/05 07:11:23;;;;;;;0.13;0.13;;;11.70;99.90;;;;;;5008526;28;20081;-66
2022/05/05 07:13:48;;;;;;;2.25;0.28;;;11.70;99.90;;;;;;5015528;28;20093;-66
2022/05/05 07:16:14;;;;;;;0.10;0.10;;;11.80;99.90;;;;;;5029493;28;20041;-66
2022/05/05 07:18:39;;;;;;;0.57;0.57;;;11.80;99.90;;;;;;5009245;28;20389;-65
2022/05/05 07:21:05;;;;;;;0.10;0.10;;;11.90;99.90;;;;;;5010160;28;20107;-66
2022/05/05 07:23:31;;;;;;;5.57;1.23;;;11.90;99.90;;;;;;5009198;28;20042;-66
2022/05/05 07:25:57;;;;;;;0.10;0.10;;;12.00;99.90;;;;;;5009718;28;20057;-66
2022/05/05 07:28:22;;;;;;;2.45;1.05;;;12.00;99.90;;;;;;5009624;28;20046;-66
2022/05/05 07:30:48;;;;;;;0.22;0.22;;;12.00;99.90;;;;;;5009464;28;20046;-66
2022/05/05 07:33:13;;;;;;;0.20;0.20;;;12.00;99.90;;;;;;5011612;28;20061;-66
2022/05/05 07:35:39;;;;;;;0.20;0.20;;;12.10;99.90;;;;;;5010384;28;20046;-66
2022/05/05 07:38:05;;;;;;;0.30;0.30;;;12.10;99.90;;;;;;5008299;28;20129;-64
2022/05/05 07:40:30;;;;;;;0.10;0.10;;;12.20;99.90;;;;;;5014366;28;20042;-65
2022/05/05 07:42:56;;;;;;;0.22;0.22;;;12.30;99.90;;;;;;5028001;28;20547;-65
2022/05/05 07:45:22;;;;;;;0.00;0.00;;;12.40;99.90;;;;;;5014095;28;20079;-64
2022/05/05 07:47:48;;;;;;;0.10;0.10;;;12.40;99.90;;;;;;5015104;28;20049;-64
2022/05/05 07:50:14;;;;;;;0.50;0.50;;;12.50;99.90;;;;;;5022308;28;20454;-64
2022/05/05 07:52:40;;;;;;;0.20;0.20;;;12.60;99.90;;;;;;5019340;28;20057;-65
2022/05/05 07:55:07;;;;;;;0.22;0.22;;;12.70;99.90;;;;;;5023253;28;20073;-65
2022/05/05 07:57:41;;;;;;;0.10;0.10;;;12.80;99.90;;;;;;5013215;28;20036;-65
2022/05/05 08:00:07;;;;;;;1.73;1.20;;;12.90;99.90;;;;;;5028348;28;20041;-65
2022/05/05 08:02:35;;;;;;;0.40;0.40;;;12.90;99.90;;;;;;5015379;28;20137;-65
2022/05/05 08:05:00;;;;;;;0.10;0.10;;;12.90;99.90;;;;;;5010488;28;20056;-65
2022/05/05 08:07:26;;;;;;;0.00;0.00;;;12.90;99.90;;;;;;5008673;28;20049;-65
2022/05/05 08:09:51;;;;;;;0.10;0.10;;;13.00;99.90;;;;;;5018275;28;20057;-65
2022/05/05 08:12:17;;;;;;;0.20;0.20;;;12.90;99.90;;;;;;5015707;28;20053;-65
2022/05/05 08:14:42;;;;;;;0.13;0.13;;;13.00;99.90;;;;;;5009643;28;20046;-65
2022/05/05 08:17:08;;;;;;;0.68;0.63;;;13.10;99.90;;;;;;5019127;28;20124;-66
2022/05/05 08:19:34;;;;;;;0.08;0.08;;;13.10;99.90;;;;;;5019093;28;20042;-65
2022/05/05 08:21:59;;;;;;;0.10;0.10;;;13.20;99.90;;;;;;5012705;28;20822;-65
2022/05/05 08:29:54;;;;;;;0.10;0.10;;;13.70;99.90;;;;;;5028006;28;20076;-65
2022/05/05 08:32:19;;;;;;;0.10;0.10;;;13.90;99.90;;;;;;5016717;28;20074;-65
2022/05/05 08:34:45;;;;;;;0.10;0.10;;;14.00;99.90;;;;;;5022745;28;20033;-65
2022/05/05 08:37:10;;;;;;;0.45;0.45;;;14.00;99.90;;;;;;5023087;28;20080;-64
2022/05/05 08:39:36;;;;;;;0.20;0.20;;;14.00;99.90;;;;;;5025166;28;20132;-65
2022/05/05 08:42:04;;;;;;;0.10;0.10;;;14.10;99.90;;;;;;5015495;28;20045;-65
2022/05/05 08:44:29;;;;;;;5.72;0.70;;;14.20;99.90;;;;;;5019732;28;20045;-65
2022/05/05 08:46:55;;;;;;;0.38;0.38;;;14.30;99.90;;;;;;5019402;28;20052;-65
2022/05/05 08:49:23;;;;;;;0.00;0.00;;;14.30;99.90;;;;;;5007216;28;20045;-65
2022/05/05 08:51:51;;;;;;;0.10;0.10;;;14.30;99.90;;;;;;5019506;28;20056;-65
2022/05/05 08:54:18;;;;;;;0.10;0.10;;;14.20;99.90;;;;;;5027877;28;20069;-65
2022/05/05 08:56:54;;;;;;;0.52;0.52;;;14.10;99.90;;;;;;5027089;28;20397;-65
2022/05/05 08:59:21;;;;;;;0.80;0.47;;;14.00;99.90;;;;;;5018087;28;20366;-65
2022/05/05 09:01:48;;;;;;;0.10;0.10;;;14.20;99.90;;;;;;5008647;28;20044;-65
2022/05/05 09:04:13;;;;;;;4.40;0.98;;;14.40;99.90;;;;;;5007492;28;20462;-65
2022/05/05 09:06:51;;;;;;;0.35;0.35;;;14.60;99.90;;;;;;5018491;28;20038;-65
2022/05/05 09:09:28;;;;;;;1.00;0.60;;;14.70;99.90;;;;;;5008473;28;20054;-65
2022/05/05 09:12:06;;;;;;;0.25;0.25;;;14.70;99.90;;;;;;5021082;28;20402;-65
2022/05/05 09:14:55;;;;;;;0.10;0.10;;;14.70;99.90;;;;;;5019980;28;20042;-65
2022/05/05 09:17:26;;;;;;;0.13;0.13;;;14.80;99.90;;;;;;5018564;28;20069;-65
2022/05/05 09:19:52;;;;;;;0.10;0.10;;;15.40;99.90;;;;;;5026746;28;20053;-65
2022/05/05 09:22:26;;;;;;;0.13;0.13;;;16.00;99.90;;;;;;5027165;28;20045;-65
2022/05/05 09:24:56;;;;;;;0.20;0.20;;;16.60;99.90;;;;;;5025592;28;20396;-65
2022/05/05 09:27:31;;;;;;;0.10;0.10;;;17.20;98.40;;;;;;5006485;28;20045;-65
2022/05/05 09:30:02;;;;;;;0.10;0.10;;;17.30;98.30;;;;;;5006989;28;20057;-65
2022/05/05 09:32:33;;;;;;;0.10;0.10;;;17.70;98.90;;;;;;5007332;28;20056;-65
2022/05/05 09:35:02;;;;;;;0.00;0.00;;;17.60;98.60;;;;;;5017397;28;20044;-65
2022/05/05 09:37:28;;;;;;;0.47;0.47;;;17.70;97.30;;;;;;5006240;28;20097;-65
2022/05/05 09:39:55;;;;;;;0.00;0.00;;;17.90;97.60;;;;;;5011153;28;20050;-65
2022/05/05 09:42:38;;;;;;;0.22;0.22;;;18.30;97.30;;;;;;5009574;28;20125;-65
2022/05/05 09:45:48;;;;;;;0.10;0.10;;;18.40;96.90;;;;;;5011843;28;20512;-65
2022/05/05 09:48:28;;;;;;;0.00;0.00;;;18.40;97.60;;;;;;5015686;28;20343;-65
2022/05/05 09:51:08;;;;;;;0.70;0.70;;;18.00;96.80;;;;;;5019615;28;20045;-65
2022/05/05 09:59:40;;;;;;;0.22;0.22;;;17.50;98.20;;;;;;5019356;28;20054;-66
2022/05/05 10:02:15;;;;;;;0.00;0.00;;;17.50;98.00;;;;;;5007710;28;20042;-65
2022/05/05 10:04:48;;;;;;;0.10;0.10;;;17.20;97.60;;;;;;5006537;28;20478;-65
2022/05/05 10:07:17;;;;;;;0.10;0.10;;;17.20;98.70;;;;;;5010238;28;20042;-65
2022/05/05 10:09:44;;;;;;;0.10;0.10;;;17.20;98.70;;;;;;5011074;28;20117;-64
2022/05/05 10:12:10;;;;;;;0.30;0.30;;;17.30;98.20;;;;;;5027315;28;20096;-65
2022/05/05 10:14:36;;;;;;;0.10;0.10;;;17.30;98.30;;;;;;5013225;28;20045;-65
2022/05/05 10:17:03;;;;;;;0.10;0.10;;;17.20;98.20;;;;;;5009937;28;20390;-65
2022/05/05 10:19:28;;;;;;;0.00;0.00;;;17.20;99.10;;;;;;5010820;28;20139;-65
2022/05/05 10:21:59;;;;;;;0.10;0.10;;;17.10;99.00;;;;;;5016514;28;20530;-65
2022/05/05 10:24:43;;;;;;;0.30;0.30;;;17.00;99.30;;;;;;5025011;28;20631;-64
2022/05/05 10:27:10;;;;;;;0.00;0.00;;;17.30;99.90;;;;;;5010278;28;20048;-65
2022/05/05 10:29:43;;;;;;;0.50;0.50;;;17.60;99.10;;;;;;5009880;28;20057;-64
2022/05/05 10:32:21;;;;;;;0.35;0.35;;;17.60;98.80;;;;;;5014374;28;20049;-65
2022/05/05 10:35:14;;;;;;;0.10;0.10;;;17.80;99.60;;;;;;5026799;28;20042;-64
2022/05/05 10:37:40;;;;;;;0.20;0.20;;;17.60;99.50;;;;;;5026145;28;20149;-65
2022/05/05 10:40:07;;;;;;;0.10;0.10;;;17.60;98.80;;;;;;5013698;28;20148;-65
2022/05/05 10:42:43;;;;;;;0.38;0.38;;;17.80;99.10;;;;;;5021213;28;20476;-63
2022/05/05 10:45:30;;;;;;;0.30;0.30;;;18.10;99.40;;;;;;5024553;28;20056;-65
2022/05/05 10:47:58;;;;;;;0.10;0.10;;;18.30;99.00;;;;;;5027791;28;20132;-65
2022/05/05 10:50:49;;;;;;;0.20;0.20;;;18.30;98.30;;;;;;5014045;28;20049;-65
2022/05/05 10:53:36;;;;;;;0.10;0.10;;;18.20;99.10;;;;;;5014149;28;20053;-65
2022/05/05 10:56:05;;;;;;;0.73;0.68;;;18.40;99.40;;;;;;5023633;28;20555;-65
2022/05/05 10:59:01;;;;;;;1.20;0.80;;;18.40;98.40;;;;;;5021751;28;20516;-65
2022/05/05 11:01:29;;;;;;;2.72;1.10;;;18.30;99.10;;;;;;5026903;28;20045;-65
2022/05/05 11:04:17;;;;;;;0.73;0.50;;;18.40;98.80;;;;;;5030779;28;20053;-65
2022/05/05 11:06:44;;;;;;;0.40;0.40;;;18.30;99.80;;;;;;5028466;28;20152;-65
2022/05/05 11:09:27;;;;;;;0.93;0.93;;;18.30;98.90;;;;;;5030187;28;20103;-65
2022/05/05 11:12:16;;;;;;;0.13;0.13;;;18.30;99.40;;;;;;5010907;28;20041;-65
2022/05/05 11:23:29;;;;;;;0.40;0.40;;;18.30;99.60;;;;;;5018912;28;20547;-65
2022/05/05 11:25:55;;;;;;;3.20;1.00;;;18.10;99.30;;;;;;5029746;28;20061;-65
2022/05/05 11:28:21;;;;;;;0.20;0.20;;;18.00;99.40;;;;;;5013852;28;20042;-66
2022/05/05 11:30:47;;;;;;;0.47;0.47;;;18.00;99.90;;;;;;5010924;28;20049;-65
2022/05/05 11:33:13;;;;;;;0.30;0.30;;;18.20;99.90;;;;;;5012497;28;20050;-65
2022/05/05 11:35:38;;;;;;;0.60;0.60;;;18.20;99.90;;;;;;5031128;28;20068;-65
2022/05/05 11:38:09;;;;;;;0.45;0.45;;;18.20;99.90;;;;;;5030313;28;20575;-65
2022/05/05 11:40:36;;;;;;;0.10;0.10;;;18.40;99.90;;;;;;5031391;28;20408;-65
2022/05/05 11:45:53;;;;;;;0.82;0.82;;;18.40;99.90;;;;;;5011789;28;20050;-65
2022/05/05 11:48:19;;;;;;;4.32;1.98;;;18.20;99.80;;;;;;5009757;28;20100;-66
2022/05/05 11:50:45;;;;;;;1.17;0.32;;;18.10;99.90;;;;;;5011449;28;20494;-66
2022/05/05 11:53:17;;;;;;;0.35;0.35;;;18.20;99.90;;;;;;5022297;28;20068;-65
2022/05/05 11:55:48;;;;;;;2.33;1.30;;;17.90;99.80;;;;;;5011318;28;20095;-66
2022/05/05 12:01:36;;;;;;;0.20;0.20;;;18.00;99.80;;;;;;5011269;28;20053;-66
2022/05/05 12:04:00;;;;;;;0.57;0.57;;;18.20;99.80;;;;;;5025052;28;20037;-66
2022/05/05 12:06:27;;;;;;;1.02;0.55;;;18.50;99.70;;;;;;5030141;28;20388;-66
2022/05/05 12:08:53;;;;;;;0.30;0.30;;;18.50;99.40;;;;;;5027839;28;20045;-66
2022/05/05 12:11:19;;;;;;;2.72;1.20;;;18.70;99.60;;;;;;5027207;28;20049;-66
2022/05/05 12:13:44;;;;;;;1.23;1.13;;;18.90;99.90;;;;;;5028569;28;20499;-66
2022/05/05 12:16:10;;;;;;;1.48;0.57;;;19.20;99.50;;;;;;5029018;28;20053;-66
2022/05/05 12:18:52;;;;;;;1.65;1.15;;;19.30;99.90;;;;;;5010752;28;20046;-66
2022/05/05 12:21:25;;;;;;;0.80;0.80;;;19.20;99.00;;;;;;5016062;28;20049;-66
2022/05/05 12:24:00;;;;;;;0.10;0.10;;;19.20;98.60;;;;;;5030572;28;20041;-66
2022/05/05 12:26:33;;;;;;;1.90;0.25;;;19.20;99.90;;;;;;5028747;28;20044;-66
2022/05/05 12:28:59;;;;;;;0.20;0.20;;;19.30;99.20;;;;;;5029611;28;20048;-66
2022/05/05 12:31:28;;;;;;;0.10;0.10;;;19.40;99.20;;;;;;5021933;28;20389;-66
2022/05/05 12:33:54;;;;;;;0.35;0.35;;;19.50;98.70;;;;;;5010811;28;20134;-66
2022/05/05 12:36:27;;;;;;;0.38;0.38;;;19.60;98.70;;;;;;5009418;28;20052;-66
2022/05/05 12:39:08;;;;;;;12.18;1.13;;;19.60;98.60;;;;;;5010676;28;20489;-66
2022/05/05 12:41:34;;;;;;;0.43;0.43;;;19.60;98.80;;;;;;5013109;28;20053;-67
2022/05/05 12:44:08;;;;;;;0.50;0.50;;;19.60;99.00;;;;;;5030202;28;20068;-67
2022/05/05 12:46:35;;;;;;;0.28;0.28;;;19.90;99.70;;;;;;5030132;28;20444;-66
2022/05/05 12:49:00;;;;;;;2.25;1.40;;;19.80;99.00;;;;;;5028871;28;20052;-67
2022/05/05 12:51:31;;;;;;;0.63;0.40;;;19.80;98.40;;;;;;5017598;28;20041;-67
2022/05/05 12:59:37;;;;;;;0.10;0.10;;;19.80;98.60;;;;;;5024702;28;20054;-67
2022/05/05 13:02:05;;;;;;;0.10;0.10;;;20.20;98.70;;;;;;5009961;28;20042;-67
2022/05/05 13:04:30;;;;;;;0.35;0.35;;;20.50;99.40;;;;;;5025363;28;20091;-67
2022/05/05 13:06:56;;;;;;;0.63;0.63;;;20.70;98.20;;;;;;5030643;28;20038;-67
2022/05/05 13:09:22;;;;;;;1.27;1.10;;;20.60;97.00;;;;;;5023130;28;20100;-67
2022/05/05 13:11:52;;;;;;;0.40;0.40;;;20.70;97.70;;;;;;5015645;28;20037;-67
2022/05/05 13:14:18;;;;;;;3.00;1.55;;;20.50;98.20;;;;;;5030401;28;20181;-68
2022/05/05 13:16:44;;;;;;;0.00;0.00;;;20.70;98.00;;;;;;5029491;28;20053;-68
2022/05/05 13:19:10;;;;;;;0.88;0.73;;;20.90;97.10;;;;;;5012718;28;20046;-68
2022/05/05 13:21:36;;;;;;;5.93;1.30;;;20.90;97.10;;;;;;5017452;28;20091;-67
2022/05/05 13:24:02;;;;;;;0.38;0.38;;;20.70;97.00;;;;;;5009564;28;20124;-68
2022/05/05 13:26:28;;;;;;;0.13;0.13;;;20.70;97.30;;;;;;5009113;28;20120;-67
2022/05/05 13:28:54;;;;;;;4.13;0.98;;;20.80;97.00;;;;;;5010081;28;20053;-67
2022/05/05 13:31:19;;;;;;;0.10;0.10;;;20.50;96.60;;;;;;5009457;28;20116;-67
2022/05/05 13:33:45;;;;;;;0.25;0.25;;;20.30;97.30;;;;;;5030148;28;20030;-68
2022/05/05 13:36:11;;;;;;;0.60;0.60;;;20.20;96.70;;;;;;5017754;28;20053;-68
2022/05/05 13:38:37;;;;;;;1.23;0.82;;;20.00;97.30;;;;;;5008865;28;20125;-68
2022/05/05 13:41:03;;;;;;;2.72;1.85;;;19.70;97.20;;;;;;5008624;28;20042;-68
2022/05/05 13:43:29;;;;;;;0.75;0.75;;;19.50;97.30;;;;;;5014554;28;20038;-68
2022/05/05 13:45:55;;;;;;;1.15;1.10;;;19.40;98.10;;;;;;5030154;28;20092;-68